Погода Матозиньюсна неделю

Минас-Жерайс, Бразилия

18 - 24 мая
  • 18мая
    Сегодня
    +17°
    +29°
    Ясно и безоблачно
    ВремяПогодаТемператураВлажностьДавлениеВетер, м/сВероятность осадков
    00:00Ясно и безоблачно+20°C77 %692 мм1.6 м/с5 %
    03:00Ясно и безоблачно+18°C84 %691 мм1.7 м/с5 %
    06:00Ясно и безоблачно+17°C88 %692 мм2.0 м/с5 %
    09:00Ясно и безоблачно+23°C61 %694 мм1.3 м/с5 %
    12:00Ясно и безоблачно+27°C39 %694 мм0.6 м/с5 %
    15:00Ясно и безоблачно+29°C34 %692 мм0.2 м/с5 %
    18:00Ясно и безоблачно+25°C46 %692 мм0.7 м/с5 %
    21:00Ясно и безоблачно+22°C62 %692 мм1.0 м/с5 %
  • 19мая
    Воскресенье
    +17°
    +29°
    Ясно и безоблачно
    ВремяПогодаТемператураВлажностьДавлениеВетер, м/сВероятность осадков
    00:00Ясно и безоблачно+20°C74 %692 мм2.0 м/с5 %
    03:00Практически безоблачно+18°C78 %691 мм2.0 м/с5 %
    06:00Практически безоблачно+17°C86 %691 мм1.8 м/с5 %
    09:00Практически безоблачно+22°C61 %694 мм1.5 м/с5 %
    12:00Небольшая облачность+27°C39 %693 мм0.5 м/с5 %
    15:00Ясно и безоблачно+29°C36 %692 мм0.3 м/с5 %
    18:00Ясно и безоблачно+26°C49 %692 мм1.7 м/с5 %
    21:00Ясно и безоблачно+22°C63 %692 мм1.7 м/с5 %
  • 20мая
    Понедельник
    +16°
    +29°
    Ясно и безоблачно
    ВремяПогодаТемператураВлажностьДавлениеВетер, м/сВероятность осадков
    00:00Ясно и безоблачно+20°C73 %692 мм2.0 м/с5 %
    03:00Ясно и безоблачно+18°C81 %691 мм1.8 м/с5 %
    06:00Ясно и безоблачно+18°C81 %691 мм2.0 м/с5 %
    09:00Ясно и безоблачно+23°C59 %694 мм1.9 м/с5 %
    12:00Ясно и безоблачно+27°C37 %693 мм1.7 м/с5 %
    15:00Ясно и безоблачно+29°C35 %692 мм2.0 м/с5 %
    18:00Ясно и безоблачно+25°C46 %692 мм2.5 м/с5 %
    21:00Ясно и безоблачно+22°C61 %693 мм2.0 м/с5 %
  • 21мая
    Вторник
    +15°
    +28°
    Ясно и безоблачно
    ВремяПогодаТемператураВлажностьДавлениеВетер, м/сВероятность осадков
    00:00Ясно и безоблачно+19°C75 %693 мм1.7 м/с5 %
    03:00Ясно и безоблачно+17°C77 %692 мм1.8 м/с5 %
    06:00Ясно и безоблачно+17°C79 %692 мм2.4 м/с5 %
    09:00Ясно и безоблачно+22°C57 %695 мм2.8 м/с5 %
    12:00Ясно и безоблачно+27°C45 %694 мм3.3 м/с5 %
    15:00Ясно и безоблачно+28°C43 %693 мм3.9 м/с5 %
    18:00Ясно и безоблачно+24°C52 %693 мм3.1 м/с5 %
    21:00Ясно и безоблачно+21°C69 %694 мм1.8 м/с5 %
  • 22мая
    Среда
    +17°
    +28°
    Ясно и безоблачно
    ВремяПогодаТемператураВлажностьДавлениеВетер, м/сВероятность осадков
    00:00Ясно и безоблачно+18°C74 %693 мм2.0 м/с5 %
    03:00Ясно и безоблачно+17°C78 %692 мм1.9 м/с5 %
    06:00Ясно и безоблачно+16°C87 %693 мм1.7 м/с5 %
    09:00Практически безоблачно+21°C69 %695 мм3.0 м/с5 %
    12:00Практически безоблачно+26°C51 %695 мм4.0 м/с4 %
    15:00Ясно и безоблачно+27°C45 %693 мм2.9 м/с5 %
    18:00Практически безоблачно+24°C54 %693 мм2.9 м/с5 %
    21:00Ясно и безоблачно+22°C72 %694 мм2.7 м/с5 %
Мы используем cookies
Соглашаюсь